Time;durP1;ratioP1;P1;durP2;ratioP2;P2;SDS_P1;SDS_P2;PMS_P1;PMS_P2;Temp;Humidity;BMP_temperature;BMP_pressure;BME280_temperature;BME280_humidity;BME280_pressure;Samples;Min_cycle;Max_cycle;Signal;HPM_P1;HPM_P2
2022/06/29 00:01:47;;;;;;;6.37;2.95;;;;;;;;;;4347826;33;20036;-72
2022/06/29 00:04:15;;;;;;;3.05;2.10;;;;;;;;;;4351702;33;20037;-72
2022/06/29 00:06:46;;;;;;;3.75;2.20;;;;;;;;;;4355804;32;20035;-72
2022/06/29 00:12:42;;;;;;;4.55;2.45;;;;;;;;;;4358662;33;20089;-72
2022/06/29 00:15:10;;;;;;;6.45;2.72;;;;;;;;;;4354865;33;20023;-72
2022/06/29 00:17:36;;;;;;;4.45;2.25;;;;;;;;;;4361633;32;20096;-72
2022/06/29 00:20:09;;;;;;;7.82;2.87;;;;;;;;;;4360451;32;20027;-72
2022/06/29 00:22:35;;;;;;;6.30;2.47;;;;;;;;;;4361656;32;20453;-72
2022/06/29 00:25:04;;;;;;;11.02;2.83;;;;;;;;;;4362238;32;20058;-72
2022/06/29 00:27:37;;;;;;;6.97;2.50;;;;;;;;;;4361543;32;20024;-72
2022/06/29 00:30:23;;;;;;;4.12;2.22;;;;;;;;;;4356603;32;20410;-72
2022/06/29 00:33:23;;;;;;;6.43;3.42;;;;;;;;;;4346137;33;20046;-72
2022/06/29 00:45:40;;;;;;;9.80;2.60;;;;;;;;;;4314439;33;20033;-72
2022/06/29 00:48:31;;;;;;;;;;;;;;;;;;4312057;33;20106;-72
2022/06/29 00:51:19;;;;;;;4.10;2.72;;;;;;;;;;4314311;33;19974;-72
2022/06/29 00:53:45;;;;;;;7.80;2.90;;;;;;;;;;4315057;33;20028;-72
2022/06/29 00:56:12;;;;;;;5.15;2.95;;;;;;;;;;4327535;33;20106;-72
2022/06/29 01:01:57;;;;;;;5.75;2.72;;;;;;;;;;4314597;33;20382;-72
2022/06/29 01:04:25;;;;;;;6.30;2.70;;;;;;;;;;4314184;33;20032;-71
2022/06/29 01:06:51;;;;;;;4.28;2.83;;;;;;;;;;4348700;32;20451;-72
2022/06/29 01:09:17;;;;;;;8.40;3.20;;;;;;;;;;4360142;32;20031;-72
2022/06/29 01:11:42;;;;;;;7.93;2.80;;;;;;;;;;4360523;32;20031;-72
2022/06/29 01:14:13;;;;;;;5.65;3.00;;;;;;;;;;4360433;32;20088;-72
2022/06/29 01:16:38;;;;;;;5.82;3.10;;;;;;;;;;4361602;32;20436;-72
2022/06/29 01:19:06;;;;;;;7.50;3.35;;;;;;;;;;4361099;32;20024;-72
2022/06/29 01:21:32;;;;;;;10.85;3.45;;;;;;;;;;4360291;33;20514;-72
2022/06/29 01:23:58;;;;;;;4.28;3.10;;;;;;;;;;4360505;33;20030;-71
2022/06/29 01:26:23;;;;;;;8.05;3.42;;;;;;;;;;4360524;33;20085;-72
2022/06/29 01:28:49;;;;;;;9.32;3.08;;;;;;;;;;4348294;33;20098;-71
2022/06/29 01:31:14;;;;;;;4.60;3.25;;;;;;;;;;4345752;33;20061;-72
2022/06/29 01:33:40;;;;;;;4.93;2.97;;;;;;;;;;4355416;33;20045;-71
2022/06/29 01:36:06;;;;;;;5.25;3.55;;;;;;;;;;4360780;33;20088;-72
2022/06/29 01:38:31;;;;;;;5.35;3.15;;;;;;;;;;4359056;33;20027;-71
2022/06/29 01:40:56;;;;;;;5.40;3.67;;;;;;;;;;4360523;33;20028;-72
2022/06/29 01:43:21;;;;;;;6.55;3.53;;;;;;;;;;4360373;33;20364;-71
2022/06/29 01:45:47;;;;;;;4.10;2.78;;;;;;;;;;4359613;32;20027;-72
2022/06/29 01:48:12;;;;;;;10.18;3.85;;;;;;;;;;4361232;33;20081;-71
2022/06/29 01:50:38;;;;;;;7.53;3.90;;;;;;;;;;4359740;33;20027;-72
2022/06/29 01:53:03;;;;;;;5.57;3.53;;;;;;;;;;4361976;33;20036;-72
2022/06/29 01:55:28;;;;;;;4.85;3.70;;;;;;;;;;4361156;33;20023;-72
2022/06/29 01:57:53;;;;;;;6.05;3.78;;;;;;;;;;4360932;33;20099;-72
2022/06/29 02:00:19;;;;;;;7.12;4.12;;;;;;;;;;4346742;33;20018;-72
2022/06/29 02:02:44;;;;;;;11.48;4.10;;;;;;;;;;4360489;32;20031;-72
2022/06/29 02:05:09;;;;;;;7.87;3.53;;;;;;;;;;4364131;32;20031;-72
2022/06/29 02:07:35;;;;;;;6.90;3.40;;;;;;;;;;4363085;32;20063;-71
2022/06/29 02:10:00;;;;;;;7.78;3.40;;;;;;;;;;4363141;32;20024;-71
2022/06/29 02:12:25;;;;;;;7.82;4.03;;;;;;;;;;4349330;33;20079;-72
2022/06/29 02:14:51;;;;;;;4.90;3.55;;;;;;;;;;4364454;32;20139;-71
2022/06/29 02:17:16;;;;;;;4.93;3.95;;;;;;;;;;4377865;32;20027;-71
2022/06/29 02:19:41;;;;;;;10.27;3.70;;;;;;;;;;4362548;33;20046;-72
2022/06/29 02:22:07;;;;;;;4.05;3.17;;;;;;;;;;4349468;33;20068;-72
2022/06/29 02:24:32;;;;;;;7.40;3.78;;;;;;;;;;4349106;33;20027;-72
2022/06/29 02:26:57;;;;;;;6.68;4.15;;;;;;;;;;4363356;32;20035;-72
2022/06/29 02:29:22;;;;;;;8.20;3.78;;;;;;;;;;4362412;32;20356;-72
2022/06/29 02:34:44;;;;;;;11.30;4.85;;;;;;;;;;4362734;32;20374;-72
2022/06/29 02:37:10;;;;;;;9.23;5.25;;;;;;;;;;4362700;32;20085;-72
2022/06/29 02:39:35;;;;;;;6.53;4.03;;;;;;;;;;4362202;32;20035;-72
2022/06/29 02:42:00;;;;;;;5.18;4.10;;;;;;;;;;4362527;32;20053;-72
2022/06/29 02:44:26;;;;;;;5.28;4.03;;;;;;;;;;4362582;32;20393;-72
2022/06/29 02:46:51;;;;;;;5.35;3.95;;;;;;;;;;4362370;32;20043;-72
2022/06/29 02:49:17;;;;;;;7.68;4.37;;;;;;;;;;4349609;33;20054;-72
2022/06/29 02:51:42;;;;;;;6.62;3.65;;;;;;;;;;4348435;33;20046;-72
2022/06/29 02:54:08;;;;;;;9.02;4.53;;;;;;;;;;4347801;33;20066;-71
2022/06/29 02:56:33;;;;;;;11.32;3.92;;;;;;;;;;4334368;33;20031;-72
2022/06/29 02:58:58;;;;;;;7.65;4.05;;;;;;;;;;4347681;33;20020;-71
2022/06/29 03:01:26;;;;;;;7.85;4.20;;;;;;;;;;4347945;33;20043;-72
2022/06/29 03:03:51;;;;;;;5.07;4.10;;;;;;;;;;4356662;32;20043;-71
2022/06/29 03:06:17;;;;;;;6.45;4.40;;;;;;;;;;4376670;32;20365;-71
2022/06/29 03:08:42;;;;;;;10.48;4.90;;;;;;;;;;4362392;32;20093;-71
2022/06/29 03:11:07;;;;;;;6.53;4.00;;;;;;;;;;4361870;32;20405;-72
2022/06/29 03:13:33;;;;;;;11.02;4.93;;;;;;;;;;4350208;32;20035;-72
2022/06/29 03:15:58;;;;;;;5.37;4.12;;;;;;;;;;4361689;32;20063;-72
2022/06/29 03:18:23;;;;;;;10.00;4.95;;;;;;;;;;4363070;32;20077;-72
2022/06/29 03:20:48;;;;;;;6.10;4.18;;;;;;;;;;4362259;32;20386;-71
2022/06/29 03:23:14;;;;;;;9.40;5.93;;;;;;;;;;4361486;32;20058;-71
2022/06/29 03:25:39;;;;;;;7.55;5.37;;;;;;;;;;4355771;33;20406;-72
2022/06/29 03:28:05;;;;;;;6.20;4.93;;;;;;;;;;4361758;33;20460;-71
2022/06/29 03:30:30;;;;;;;10.07;5.97;;;;;;;;;;4348789;33;20073;-72
2022/06/29 03:32:56;;;;;;;10.20;5.93;;;;;;;;;;4348428;33;20408;-72
2022/06/29 03:35:21;;;;;;;8.90;5.40;;;;;;;;;;4363314;32;20031;-72
2022/06/29 03:37:46;;;;;;;10.52;5.53;;;;;;;;;;4362290;32;20057;-71
2022/06/29 03:40:12;;;;;;;6.07;5.10;;;;;;;;;;4362215;32;20089;-71
2022/06/29 03:42:37;;;;;;;11.85;5.57;;;;;;;;;;4362665;32;20031;-71
2022/06/29 03:45:02;;;;;;;8.75;5.30;;;;;;;;;;4361428;32;20031;-72
2022/06/29 03:47:29;;;;;;;7.00;5.35;;;;;;;;;;4360235;32;20051;-72
2022/06/29 03:49:54;;;;;;;8.77;5.90;;;;;;;;;;4362091;32;20078;-72
2022/06/29 03:52:19;;;;;;;7.90;5.07;;;;;;;;;;4362028;32;20406;-71
2022/06/29 03:54:45;;;;;;;8.00;5.97;;;;;;;;;;4362313;32;20346;-72
2022/06/29 03:57:10;;;;;;;9.68;6.40;;;;;;;;;;4361565;33;20023;-72
2022/06/29 03:59:36;;;;;;;7.15;5.25;;;;;;;;;;4361468;32;20484;-72
2022/06/29 04:02:01;;;;;;;7.32;6.07;;;;;;;;;;4361343;32;20054;-72
2022/06/29 04:04:27;;;;;;;9.07;5.72;;;;;;;;;;4362362;32;20369;-72
2022/06/29 04:06:52;;;;;;;9.00;6.28;;;;;;;;;;4362790;32;20050;-72
2022/06/29 04:09:17;;;;;;;6.47;5.22;;;;;;;;;;4362057;32;20058;-71
2022/06/29 04:11:49;;;;;;;7.30;6.50;;;;;;;;;;4361496;32;20091;-72
2022/06/29 04:14:16;;;;;;;7.85;5.50;;;;;;;;;;4362478;32;20035;-72
2022/06/29 04:16:42;;;;;;;11.85;6.05;;;;;;;;;;4361443;32;20053;-72
2022/06/29 04:19:07;;;;;;;6.15;5.40;;;;;;;;;;4361726;32;20027;-72
2022/06/29 04:21:32;;;;;;;9.60;5.95;;;;;;;;;;4360795;33;20127;-72
2022/06/29 04:23:58;;;;;;;6.90;6.20;;;;;;;;;;4360306;32;20035;-72
2022/06/29 04:26:23;;;;;;;12.05;6.20;;;;;;;;;;4347303;33;20055;-72
2022/06/29 04:28:48;;;;;;;7.05;6.10;;;;;;;;;;4360351;32;20023;-72
2022/06/29 04:31:13;;;;;;;8.63;6.55;;;;;;;;;;4362460;32;20047;-72
2022/06/29 04:33:39;;;;;;;8.82;6.35;;;;;;;;;;4361784;32;20077;-72
2022/06/29 04:36:04;;;;;;;9.38;7.07;;;;;;;;;;4361182;32;20027;-72
2022/06/29 04:38:29;;;;;;;7.53;5.78;;;;;;;;;;4360948;32;20050;-72
2022/06/29 04:40:55;;;;;;;7.45;6.00;;;;;;;;;;4352826;32;20078;-72
2022/06/29 04:43:20;;;;;;;16.95;6.97;;;;;;;;;;4333232;33;20042;-72
2022/06/29 04:48:29;;;;;;;7.93;6.25;;;;;;;;;;4375535;32;20041;-72
2022/06/29 04:50:55;;;;;;;8.65;6.85;;;;;;;;;;4375278;32;20031;-72
2022/06/29 04:53:20;;;;;;;7.85;6.12;;;;;;;;;;4375415;32;20026;-72
2022/06/29 04:55:45;;;;;;;6.72;6.03;;;;;;;;;;4376550;32;20058;-72
2022/06/29 04:58:11;;;;;;;8.13;6.05;;;;;;;;;;4362114;32;20023;-71
2022/06/29 05:00:36;;;;;;;10.27;6.75;;;;;;;;;;4375194;32;20063;-71
2022/06/29 05:03:01;;;;;;;8.40;6.68;;;;;;;;;;4375740;32;20291;-71
2022/06/29 05:05:27;;;;;;;9.63;6.75;;;;;;;;;;4375857;32;20053;-72
2022/06/29 05:07:52;;;;;;;10.82;6.97;;;;;;;;;;4376086;32;20092;-73
2022/06/29 05:10:17;;;;;;;8.75;6.93;;;;;;;;;;4376419;32;20019;-72
2022/06/29 05:12:43;;;;;;;11.73;7.43;;;;;;;;;;4375406;32;20027;-72
2022/06/29 05:15:08;;;;;;;7.87;6.53;;;;;;;;;;4376314;32;20038;-71
2022/06/29 05:17:36;;;;;;;10.35;7.47;;;;;;;;;;4375456;32;20102;-71
2022/06/29 05:20:05;;;;;;;8.45;6.45;;;;;;;;;;4375984;32;20136;-72
2022/06/29 05:22:31;;;;;;;9.70;7.60;;;;;;;;;;4376686;32;20088;-73
2022/06/29 05:24:56;;;;;;;10.43;7.87;;;;;;;;;;4361448;32;20034;-72
2022/06/29 05:27:21;;;;;;;9.05;7.80;;;;;;;;;;4362800;32;20031;-72
2022/06/29 05:29:47;;;;;;;13.95;8.00;;;;;;;;;;4360384;33;20027;-72
2022/06/29 05:32:12;;;;;;;13.20;9.02;;;;;;;;;;4360495;32;20023;-72
2022/06/29 05:34:37;;;;;;;9.40;7.53;;;;;;;;;;4369474;32;20142;-72
2022/06/29 05:37:03;;;;;;;12.95;9.18;;;;;;;;;;4375101;32;20042;-71
2022/06/29 05:39:28;;;;;;;8.02;7.22;;;;;;;;;;4377754;32;20384;-71
2022/06/29 05:41:54;;;;;;;10.77;8.18;;;;;;;;;;4377702;32;20074;-72
2022/06/29 05:44:19;;;;;;;12.45;8.68;;;;;;;;;;4379880;32;20057;-71
2022/06/29 05:46:44;;;;;;;11.35;8.02;;;;;;;;;;4378525;32;20051;-71
2022/06/29 05:49:13;;;;;;;21.45;9.75;;;;;;;;;;4370691;32;20069;-71
2022/06/29 05:51:42;;;;;;;10.48;8.80;;;;;;;;;;4349160;33;20027;-71
2022/06/29 05:54:07;;;;;;;11.88;9.65;;;;;;;;;;4363085;32;20027;-72
2022/06/29 05:56:32;;;;;;;11.75;8.25;;;;;;;;;;4363394;32;20049;-70
2022/06/29 05:58:58;;;;;;;10.95;9.43;;;;;;;;;;4363396;32;20027;-71
2022/06/29 06:01:23;;;;;;;14.20;9.15;;;;;;;;;;4363293;32;20031;-70
2022/06/29 06:03:49;;;;;;;10.65;9.25;;;;;;;;;;4365761;32;20395;-71
2022/06/29 06:06:14;;;;;;;13.25;8.98;;;;;;;;;;4352264;33;20371;-72
2022/06/29 06:08:39;;;;;;;10.98;9.45;;;;;;;;;;4364979;32;20345;-70
2022/06/29 06:11:04;;;;;;;10.35;9.25;;;;;;;;;;4362828;32;20062;-71
2022/06/29 06:13:30;;;;;;;15.32;8.68;;;;;;;;;;4362505;32;20387;-71
2022/06/29 06:15:55;;;;;;;11.38;8.77;;;;;;;;;;4373881;32;20530;-71
2022/06/29 06:18:21;;;;;;;14.27;9.38;;;;;;;;;;4362874;32;20421;-73
2022/06/29 06:20:46;;;;;;;12.00;8.82;;;;;;;;;;4366185;32;20105;-72
2022/06/29 06:23:12;;;;;;;12.20;8.90;;;;;;;;;;4363495;32;20448;-73
2022/06/29 06:25:37;;;;;;;12.75;8.95;;;;;;;;;;4363641;32;20051;-73
2022/06/29 06:28:05;;;;;;;8.57;7.37;;;;;;;;;;4366780;32;20407;-73
2022/06/29 06:30:30;;;;;;;13.18;8.60;;;;;;;;;;4362210;33;20031;-72
2022/06/29 06:32:56;;;;;;;10.32;9.20;;;;;;;;;;4349462;32;20092;-72
2022/06/29 06:35:21;;;;;;;13.95;9.07;;;;;;;;;;4374483;32;20035;-71
2022/06/29 06:37:47;;;;;;;10.50;8.43;;;;;;;;;;4363437;32;20106;-72
2022/06/29 06:42:56;;;;;;;11.85;8.10;;;;;;;;;;4378041;32;20119;-73
2022/06/29 06:45:22;;;;;;;11.07;7.95;;;;;;;;;;4378243;32;20030;-73
2022/06/29 06:47:47;;;;;;;11.95;7.55;;;;;;;;;;4364413;32;20088;-73
2022/06/29 06:50:13;;;;;;;12.27;8.60;;;;;;;;;;4362995;32;20134;-72
2022/06/29 06:52:38;;;;;;;12.48;7.15;;;;;;;;;;4363851;32;20027;-72
2022/06/29 06:58:07;;;;;;;7.90;7.10;;;;;;;;;;4336739;33;20381;-72
2022/06/29 07:00:33;;;;;;;9.30;7.25;;;;;;;;;;4359186;32;20414;-72
2022/06/29 07:02:58;;;;;;;10.07;7.53;;;;;;;;;;4349050;32;20401;-72
2022/06/29 07:05:25;;;;;;;11.50;7.85;;;;;;;;;;4352946;33;20392;-72
2022/06/29 07:07:50;;;;;;;8.65;7.30;;;;;;;;;;4359332;32;20069;-72
2022/06/29 07:10:16;;;;;;;12.23;7.65;;;;;;;;;;4359305;32;20082;-72
2022/06/29 07:12:41;;;;;;;14.73;8.23;;;;;;;;;;4360827;32;20023;-76
2022/06/29 07:15:06;;;;;;;11.52;7.45;;;;;;;;;;4344979;33;20101;-76
2022/06/29 07:17:32;;;;;;;9.52;6.65;;;;;;;;;;4354303;32;20028;-76
2022/06/29 07:19:57;;;;;;;9.43;7.28;;;;;;;;;;4346307;33;20028;-76
2022/06/29 07:22:23;;;;;;;11.27;7.22;;;;;;;;;;4355527;32;20035;-76
2022/06/29 07:24:48;;;;;;;9.85;6.85;;;;;;;;;;4358345;33;20027;-76
2022/06/29 07:27:14;;;;;;;10.55;7.32;;;;;;;;;;4361573;32;20023;-75
2022/06/29 07:29:42;;;;;;;10.02;7.50;;;;;;;;;;4347998;33;20035;-75
2022/06/29 07:32:08;;;;;;;10.82;6.65;;;;;;;;;;4355466;32;20047;-76
2022/06/29 07:34:33;;;;;;;9.23;6.07;;;;;;;;;;4350657;32;20061;-75
2022/06/29 07:36:59;;;;;;;11.98;6.93;;;;;;;;;;4344523;33;20036;-75
2022/06/29 07:39:25;;;;;;;9.68;5.57;;;;;;;;;;4334510;33;20016;-75
2022/06/29 07:41:50;;;;;;;9.75;6.45;;;;;;;;;;4346864;32;20050;-75
2022/06/29 07:44:15;;;;;;;12.00;6.72;;;;;;;;;;4358320;33;20121;-75
2022/06/29 07:46:40;;;;;;;9.50;6.90;;;;;;;;;;4355257;33;20479;-75
2022/06/29 07:49:06;;;;;;;8.65;6.45;;;;;;;;;;4346235;33;20063;-75
2022/06/29 07:51:31;;;;;;;9.30;6.28;;;;;;;;;;4344281;33;20038;-75
2022/06/29 07:53:56;;;;;;;10.43;6.20;;;;;;;;;;4336605;33;20077;-75
2022/06/29 07:56:22;;;;;;;10.45;7.03;;;;;;;;;;4359573;32;20039;-75
2022/06/29 07:58:47;;;;;;;8.93;6.78;;;;;;;;;;4333315;33;20029;-76
2022/06/29 08:01:12;;;;;;;11.23;6.65;;;;;;;;;;4345978;33;20086;-75
2022/06/29 08:03:37;;;;;;;10.63;6.90;;;;;;;;;;4356394;33;20023;-75
2022/06/29 08:06:05;;;;;;;7.97;5.65;;;;;;;;;;4362319;32;20039;-75
2022/06/29 08:08:31;;;;;;;9.35;5.47;;;;;;;;;;4361266;32;20059;-75
2022/06/29 08:10:56;;;;;;;10.40;5.97;;;;;;;;;;4347881;33;20055;-75
2022/06/29 08:13:21;;;;;;;6.43;4.97;;;;;;;;;;4360698;33;20080;-75
2022/06/29 08:15:47;;;;;;;12.60;6.30;;;;;;;;;;4361802;32;20132;-76
2022/06/29 08:18:13;;;;;;;7.82;6.12;;;;;;;;;;4347334;33;20032;-76
2022/06/29 08:20:38;;;;;;;10.43;7.20;;;;;;;;;;4362385;32;20049;-75
2022/06/29 08:23:04;;;;;;;10.45;8.07;;;;;;;;;;4359730;32;20089;-74
2022/06/29 08:25:31;;;;;;;11.25;6.20;;;;;;;;;;4347118;33;20428;-75
2022/06/29 08:27:56;;;;;;;8.20;4.90;;;;;;;;;;4360702;32;20070;-75
2022/06/29 08:30:21;;;;;;;6.45;4.25;;;;;;;;;;4346955;33;20076;-76
2022/06/29 08:32:47;;;;;;;6.82;5.00;;;;;;;;;;4361858;32;20053;-75
2022/06/29 08:35:15;;;;;;;7.93;4.68;;;;;;;;;;4375596;32;20342;-75
2022/06/29 08:37:41;;;;;;;5.72;3.95;;;;;;;;;;4375797;32;20023;-76
2022/06/29 08:40:06;;;;;;;7.45;4.40;;;;;;;;;;4375406;32;20058;-75
2022/06/29 08:42:35;;;;;;;7.10;4.80;;;;;;;;;;4364086;32;20027;-75
2022/06/29 08:45:01;;;;;;;6.80;4.28;;;;;;;;;;4345641;33;20102;-77
2022/06/29 08:47:28;;;;;;;7.15;4.70;;;;;;;;;;4356282;33;20453;-75
2022/06/29 08:49:54;;;;;;;6.00;4.68;;;;;;;;;;4360125;33;20053;-75
2022/06/29 08:52:21;;;;;;;7.45;4.70;;;;;;;;;;4360875;32;20023;-76
2022/06/29 08:54:48;;;;;;;6.35;4.45;;;;;;;;;;4346931;33;20031;-76
2022/06/29 08:57:13;;;;;;;7.80;4.10;;;;;;;;;;4359522;32;20023;-76
2022/06/29 08:59:39;;;;;;;6.68;4.45;;;;;;;;;;4374151;32;20064;-76
2022/06/29 09:02:05;;;;;;;9.00;4.40;;;;;;;;;;4371378;32;20031;-77
2022/06/29 09:04:30;;;;;;;6.87;4.10;;;;;;;;;;4360082;32;20480;-76
2022/06/29 09:06:56;;;;;;;7.40;4.35;;;;;;;;;;4358800;32;20130;-75
2022/06/29 09:09:22;;;;;;;6.15;3.87;;;;;;;;;;4359211;32;20027;-75
2022/06/29 09:11:49;;;;;;;10.23;4.62;;;;;;;;;;4360528;33;20046;-76
2022/06/29 09:14:27;;;;;;;7.10;4.47;;;;;;;;;;4359147;32;20082;-76
2022/06/29 09:16:53;;;;;;;6.90;3.87;;;;;;;;;;4359766;32;20456;-76
2022/06/29 09:19:21;;;;;;;9.57;5.12;;;;;;;;;;4360162;32;20043;-75
2022/06/29 09:21:51;;;;;;;7.45;4.90;;;;;;;;;;4359810;32;20404;-75
2022/06/29 09:24:17;;;;;;;10.95;4.90;;;;;;;;;;4360311;32;20067;-75
2022/06/29 09:27:12;;;;;;;12.85;4.62;;;;;;;;;;4359734;32;20066;-75
2022/06/29 09:29:41;;;;;;;15.77;4.57;;;;;;;;;;4360249;33;20307;-75
2022/06/29 09:32:08;;;;;;;7.03;3.87;;;;;;;;;;4359579;33;20120;-75
2022/06/29 09:34:43;;;;;;;8.05;3.87;;;;;;;;;;4365841;32;20035;-75
2022/06/29 09:37:10;;;;;;;10.52;3.67;;;;;;;;;;4359009;33;20028;-75
2022/06/29 09:39:36;;;;;;;6.80;3.12;;;;;;;;;;4358784;33;20045;-76
2022/06/29 09:42:06;;;;;;;10.43;3.83;;;;;;;;;;4359083;33;20061;-76
2022/06/29 09:44:31;;;;;;;7.85;4.20;;;;;;;;;;4369674;32;20467;-75
2022/06/29 09:46:57;;;;;;;7.97;3.40;;;;;;;;;;4365825;32;20098;-76
2022/06/29 09:49:27;;;;;;;4.90;2.90;;;;;;;;;;4373406;32;20413;-75
2022/06/29 09:51:56;;;;;;;5.60;2.70;;;;;;;;;;4369320;32;20054;-75
2022/06/29 09:54:30;;;;;;;4.68;2.80;;;;;;;;;;4375464;32;20030;-75
2022/06/29 09:56:56;;;;;;;4.82;2.40;;;;;;;;;;4382387;32;20035;-76
2022/06/29 10:02:34;;;;;;;7.00;2.67;;;;;;;;;;4374766;32;20026;-77
2022/06/29 10:04:57;;;;;;;6.05;2.50;;;;;;;;;;4373344;32;20045;-74
2022/06/29 10:07:22;;;;;;;5.95;2.55;;;;;;;;;;4371540;32;20035;-75
2022/06/29 10:09:48;;;;;;;5.80;2.53;;;;;;;;;;4366367;32;20031;-75
2022/06/29 10:15:25;;;;;;;10.33;2.60;;;;;;;;;;4372543;32;20053;-75
2022/06/29 10:17:50;;;;;;;6.97;2.30;;;;;;;;;;4365248;32;20405;-75
2022/06/29 10:20:21;;;;;;;3.12;2.12;;;;;;;;;;4374218;32;20053;-77
2022/06/29 10:22:46;;;;;;;3.08;2.08;;;;;;;;;;4367513;32;20162;-76
2022/06/29 10:25:12;;;;;;;6.32;2.35;;;;;;;;;;4360828;32;20035;-76
2022/06/29 10:27:37;;;;;;;6.68;2.00;;;;;;;;;;4356778;32;20069;-76
2022/06/29 10:30:18;;;;;;;3.70;2.30;;;;;;;;;;4371298;32;20084;-76
2022/06/29 10:32:43;;;;;;;4.70;2.25;;;;;;;;;;4364467;32;20085;-76
2022/06/29 10:35:08;;;;;;;8.50;2.60;;;;;;;;;;4377464;32;20031;-76
2022/06/29 10:37:46;;;;;;;6.62;3.37;;;;;;;;;;4376974;32;20449;-75
2022/06/29 10:40:15;;;;;;;5.80;2.67;;;;;;;;;;4367774;32;20057;-75
2022/06/29 10:45:25;;;;;;;7.35;1.80;;;;;;;;;;4367757;32;20053;-75
2022/06/29 10:47:56;;;;;;;4.57;2.72;;;;;;;;;;4376769;32;20368;-76
2022/06/29 10:50:25;;;;;;;5.15;2.10;;;;;;;;;;4376982;32;20098;-76
2022/06/29 10:52:52;;;;;;;4.55;2.42;;;;;;;;;;4360403;33;20114;-76
2022/06/29 10:55:17;;;;;;;7.87;2.75;;;;;;;;;;4361902;32;20059;-75
2022/06/29 10:57:43;;;;;;;7.45;2.37;;;;;;;;;;4355309;32;20134;-75
2022/06/29 11:00:14;;;;;;;4.75;2.17;;;;;;;;;;4360851;32;20087;-75
2022/06/29 11:02:41;;;;;;;6.82;3.78;;;;;;;;;;4349183;33;20090;-75
2022/06/29 11:05:06;;;;;;;6.80;1.58;;;;;;;;;;4361017;32;20058;-75
2022/06/29 11:12:59;;;;;;;5.70;1.98;;;;;;;;;;4357033;32;20085;-75
2022/06/29 11:15:45;;;;;;;9.60;2.33;;;;;;;;;;4360796;33;20438;-76
2022/06/29 11:18:13;;;;;;;3.90;2.28;;;;;;;;;;4361812;32;20085;-76
2022/06/29 11:21:06;;;;;;;7.37;2.08;;;;;;;;;;4361215;32;20430;-76
2022/06/29 11:23:34;;;;;;;4.62;1.90;;;;;;;;;;4361087;32;20035;-76
2022/06/29 11:26:00;;;;;;;4.07;1.70;;;;;;;;;;4356819;32;20080;-75
2022/06/29 11:28:32;;;;;;;6.18;1.80;;;;;;;;;;4359938;32;20433;-75
2022/06/29 11:31:02;;;;;;;3.05;1.75;;;;;;;;;;4360862;33;20035;-75
2022/06/29 11:33:28;;;;;;;3.58;1.77;;;;;;;;;;4347947;33;20130;-76
2022/06/29 11:35:54;;;;;;;3.55;1.80;;;;;;;;;;4347816;33;20455;-76
2022/06/29 11:38:19;;;;;;;4.70;1.67;;;;;;;;;;4361525;32;20027;-75
2022/06/29 11:40:46;;;;;;;6.85;2.12;;;;;;;;;;4361282;33;20414;-76
2022/06/29 11:43:15;;;;;;;3.95;1.65;;;;;;;;;;4361451;33;20333;-76
2022/06/29 11:45:45;;;;;;;8.40;2.10;;;;;;;;;;4362234;32;20139;-76
2022/06/29 11:48:13;;;;;;;6.45;2.08;;;;;;;;;;4348098;33;20031;-76
2022/06/29 11:50:42;;;;;;;2.80;1.60;;;;;;;;;;4362514;32;20048;-76
2022/06/29 11:53:08;;;;;;;4.70;1.90;;;;;;;;;;4361779;32;20475;-76
2022/06/29 11:55:43;;;;;;;6.43;1.80;;;;;;;;;;4347584;33;20031;-76
2022/06/29 11:58:09;;;;;;;4.90;1.50;;;;;;;;;;4361501;32;20027;-76
2022/06/29 12:00:39;;;;;;;3.47;1.98;;;;;;;;;;4361257;32;20406;-76
2022/06/29 12:03:04;;;;;;;8.15;2.08;;;;;;;;;;4360935;32;20053;-76
2022/06/29 12:05:30;;;;;;;5.43;1.92;;;;;;;;;;4361167;32;20027;-76
2022/06/29 12:07:55;;;;;;;6.55;1.98;;;;;;;;;;4361439;32;20035;-76
2022/06/29 12:10:21;;;;;;;2.75;1.95;;;;;;;;;;4361054;33;20027;-76
2022/06/29 12:12:46;;;;;;;4.75;1.60;;;;;;;;;;4360906;33;20062;-76
2022/06/29 12:15:13;;;;;;;3.60;2.00;;;;;;;;;;4360584;32;20027;-76
2022/06/29 12:17:39;;;;;;;3.85;2.10;;;;;;;;;;4347678;33;20039;-76
2022/06/29 12:20:04;;;;;;;11.48;2.00;;;;;;;;;;4361091;32;20023;-76
2022/06/29 12:22:29;;;;;;;4.05;2.00;;;;;;;;;;4360776;32;20386;-76
2022/06/29 12:24:55;;;;;;;5.37;2.33;;;;;;;;;;4360869;32;20059;-76
2022/06/29 12:27:20;;;;;;;9.20;2.70;;;;;;;;;;4361519;32;20028;-76
2022/06/29 12:29:45;;;;;;;5.85;2.03;;;;;;;;;;4360622;33;20049;-75
2022/06/29 12:32:11;;;;;;;6.30;2.30;;;;;;;;;;4362178;32;20039;-76
2022/06/29 12:34:36;;;;;;;7.22;2.95;;;;;;;;;;4360823;32;20196;-75
2022/06/29 12:37:03;;;;;;;5.75;2.28;;;;;;;;;;4360762;32;20047;-76
2022/06/29 12:39:28;;;;;;;6.97;2.33;;;;;;;;;;4360857;32;20027;-75
2022/06/29 12:41:54;;;;;;;3.90;2.20;;;;;;;;;;4360963;32;20401;-75
2022/06/29 12:44:19;;;;;;;4.95;2.30;;;;;;;;;;4348594;33;20028;-77
2022/06/29 12:46:44;;;;;;;7.18;2.80;;;;;;;;;;4350872;32;20389;-77
2022/06/29 12:49:10;;;;;;;5.15;2.40;;;;;;;;;;4360450;33;20054;-76
2022/06/29 12:51:35;;;;;;;11.35;2.10;;;;;;;;;;4360600;32;20053;-76
2022/06/29 12:54:00;;;;;;;6.00;2.22;;;;;;;;;;4360855;32;20023;-76
2022/06/29 12:56:26;;;;;;;4.30;2.40;;;;;;;;;;4360433;32;20055;-75
2022/06/29 12:58:51;;;;;;;6.60;2.33;;;;;;;;;;4361159;32;20023;-76
2022/06/29 13:01:16;;;;;;;3.53;1.80;;;;;;;;;;4360407;33;20112;-76
2022/06/29 13:03:45;;;;;;;8.27;2.10;;;;;;;;;;4360845;32;20091;-75
2022/06/29 13:06:11;;;;;;;6.50;2.10;;;;;;;;;;4360144;32;20031;-76
2022/06/29 13:08:36;;;;;;;9.93;2.28;;;;;;;;;;4361012;32;20362;-76
2022/06/29 13:11:01;;;;;;;7.87;2.25;;;;;;;;;;4361265;32;20023;-76
2022/06/29 13:13:27;;;;;;;4.87;2.25;;;;;;;;;;4361180;32;20077;-76
2022/06/29 13:15:53;;;;;;;7.85;2.10;;;;;;;;;;4360103;32;20027;-76
2022/06/29 13:18:18;;;;;;;6.65;2.00;;;;;;;;;;4360429;32;20145;-76
2022/06/29 13:20:43;;;;;;;5.18;2.20;;;;;;;;;;4360421;32;20077;-77
2022/06/29 13:23:09;;;;;;;2.87;1.58;;;;;;;;;;4360348;32;20042;-76
2022/06/29 13:25:34;;;;;;;8.27;2.37;;;;;;;;;;4360314;32;20035;-76
2022/06/29 13:27:59;;;;;;;6.55;2.12;;;;;;;;;;4360673;32;20311;-76
2022/06/29 13:30:25;;;;;;;6.68;2.55;;;;;;;;;;4360423;33;20050;-76
2022/06/29 13:32:51;;;;;;;4.65;1.80;;;;;;;;;;4359121;33;20027;-75
2022/06/29 13:35:16;;;;;;;6.85;2.22;;;;;;;;;;4360719;33;20054;-76
2022/06/29 13:37:41;;;;;;;7.72;2.25;;;;;;;;;;4360345;33;20028;-76
2022/06/29 13:40:07;;;;;;;5.43;2.55;;;;;;;;;;4360244;33;20058;-76
2022/06/29 13:42:34;;;;;;;8.88;2.35;;;;;;;;;;4360661;33;20058;-75
2022/06/29 13:45:00;;;;;;;4.50;2.08;;;;;;;;;;4359703;33;20035;-77
2022/06/29 13:47:25;;;;;;;6.32;1.70;;;;;;;;;;4370319;32;20039;-76
2022/06/29 13:49:51;;;;;;;6.90;2.30;;;;;;;;;;4375493;32;20042;-77
2022/06/29 13:52:17;;;;;;;14.87;2.53;;;;;;;;;;4361233;32;20121;-75
2022/06/29 13:54:42;;;;;;;5.53;1.92;;;;;;;;;;4375053;32;20386;-75
2022/06/29 13:57:08;;;;;;;3.58;1.77;;;;;;;;;;4375450;32;20314;-76
2022/06/29 13:59:35;;;;;;;4.62;1.98;;;;;;;;;;4377021;32;20408;-76
2022/06/29 14:02:11;;;;;;;8.35;2.08;;;;;;;;;;4378377;32;20042;-76
2022/06/29 14:04:37;;;;;;;7.60;2.20;;;;;;;;;;4378183;32;20096;-78
2022/06/29 14:07:02;;;;;;;8.40;2.30;;;;;;;;;;4377638;32;20030;-75
2022/06/29 14:09:27;;;;;;;5.10;2.17;;;;;;;;;;4377857;32;20034;-77
2022/06/29 14:11:53;;;;;;;9.48;2.08;;;;;;;;;;4377743;32;20035;-77
2022/06/29 14:14:18;;;;;;;10.45;2.55;;;;;;;;;;4377850;32;20342;-77
2022/06/29 14:16:44;;;;;;;5.50;2.00;;;;;;;;;;4378122;32;20401;-76
2022/06/29 14:19:09;;;;;;;4.93;1.90;;;;;;;;;;4378238;32;20455;-76
2022/06/29 14:21:35;;;;;;;6.47;2.33;;;;;;;;;;4377664;32;20401;-76
2022/06/29 14:24:00;;;;;;;8.48;2.50;;;;;;;;;;4378496;32;20023;-77
2022/06/29 14:26:25;;;;;;;6.22;2.20;;;;;;;;;;4377300;32;20072;-75
2022/06/29 14:28:50;;;;;;;6.68;2.72;;;;;;;;;;4378065;32;20416;-76
2022/06/29 14:31:16;;;;;;;8.35;2.33;;;;;;;;;;4364651;32;20467;-76
2022/06/29 14:33:41;;;;;;;5.72;2.00;;;;;;;;;;4378023;32;20085;-76
2022/06/29 14:36:06;;;;;;;4.75;2.15;;;;;;;;;;4377405;32;20066;-76
2022/06/29 14:38:32;;;;;;;6.28;2.37;;;;;;;;;;4377680;32;20101;-76
2022/06/29 14:40:57;;;;;;;8.57;3.37;;;;;;;;;;4370384;32;20062;-76
2022/06/29 14:43:22;;;;;;;6.53;2.22;;;;;;;;;;4367398;32;20078;-76
2022/06/29 14:45:48;;;;;;;4.35;2.00;;;;;;;;;;4355028;32;20027;-76
2022/06/29 14:48:13;;;;;;;8.18;2.62;;;;;;;;;;4371590;32;20084;-76
2022/06/29 14:50:39;;;;;;;5.62;1.98;;;;;;;;;;4377174;32;20356;-76
2022/06/29 14:53:04;;;;;;;8.13;2.22;;;;;;;;;;4363817;32;20042;-76
2022/06/29 14:55:30;;;;;;;6.72;2.37;;;;;;;;;;4361992;32;20061;-75
2022/06/29 14:57:55;;;;;;;4.55;2.25;;;;;;;;;;4373777;32;20444;-76
2022/06/29 15:00:24;;;;;;;5.82;2.03;;;;;;;;;;4374905;32;20118;-75
2022/06/29 15:02:51;;;;;;;3.67;1.87;;;;;;;;;;4362821;32;20054;-75
2022/06/29 15:05:17;;;;;;;6.53;2.40;;;;;;;;;;4362084;32;20027;-75
2022/06/29 15:07:42;;;;;;;6.30;2.20;;;;;;;;;;4350227;32;20023;-75
2022/06/29 15:10:07;;;;;;;6.30;2.08;;;;;;;;;;4363147;32;20027;-76
2022/06/29 15:12:32;;;;;;;6.97;1.65;;;;;;;;;;4377182;32;20038;-76
2022/06/29 15:14:58;;;;;;;8.02;1.98;;;;;;;;;;4373237;32;20050;-75
2022/06/29 15:17:23;;;;;;;5.05;1.90;;;;;;;;;;4373322;32;20022;-76
2022/06/29 15:19:49;;;;;;;10.70;2.20;;;;;;;;;;4376273;32;20026;-76